sensor_id;sensor_type;location;lat;lon;timestamp;pressure;altitude;pressure_sealevel;temperature;humidity
73063;BME280;61230;46.328;19.972;2023-04-10T00:01:45;101324.13;;;3.75;100.00
73063;BME280;61230;46.328;19.972;2023-04-10T00:04:13;101315.41;;;3.76;100.00
73063;BME280;61230;46.328;19.972;2023-04-10T00:06:48;101316.88;;;3.82;100.00
73063;BME280;61230;46.328;19.972;2023-04-10T00:09:16;101310.22;;;3.76;100.00
73063;BME280;61230;46.328;19.972;2023-04-10T00:11:44;101312.28;;;3.87;100.00
73063;BME280;61230;46.328;19.972;2023-04-10T00:14:12;101302.41;;;3.76;100.00
73063;BME280;61230;46.328;19.972;2023-04-10T00:16:39;101303.16;;;3.78;100.00
73063;BME280;61230;46.328;19.972;2023-04-10T00:19:07;101302.00;;;3.84;100.00
73063;BME280;61230;46.328;19.972;2023-04-10T00:21:35;101291.37;;;3.88;100.00
73063;BME280;61230;46.328;19.972;2023-04-10T00:24:02;101301.00;;;3.86;100.00
73063;BME280;61230;46.328;19.972;2023-04-10T00:26:31;101294.75;;;3.90;100.00
73063;BME280;61230;46.328;19.972;2023-04-10T00:28:58;101298.19;;;3.91;100.00
73063;BME280;61230;46.328;19.972;2023-04-10T00:31:26;101245.12;;;3.59;100.00
73063;BME280;61230;46.328;19.972;2023-04-10T00:33:53;101287.47;;;3.80;100.00
73063;BME280;61230;46.328;19.972;2023-04-10T00:36:21;101295.91;;;3.85;100.00
73063;BME280;61230;46.328;19.972;2023-04-10T00:38:49;101282.62;;;3.72;100.00
73063;BME280;61230;46.328;19.972;2023-04-10T00:41:17;101291.91;;;3.78;100.00
73063;BME280;61230;46.328;19.972;2023-04-10T00:43:45;101293.59;;;3.79;100.00
73063;BME280;61230;46.328;19.972;2023-04-10T00:46:12;101286.03;;;3.74;100.00
73063;BME280;61230;46.328;19.972;2023-04-10T00:48:40;101238.09;;;3.44;100.00
73063;BME280;61230;46.328;19.972;2023-04-10T00:51:08;101294.97;;;3.69;100.00
73063;BME280;61230;46.328;19.972;2023-04-10T00:53:36;101235.62;;;3.41;100.00
73063;BME280;61230;46.328;19.972;2023-04-10T00:56:04;101291.22;;;3.74;100.00
73063;BME280;61230;46.328;19.972;2023-04-10T00:58:32;101270.72;;;3.68;100.00
73063;BME280;61230;46.328;19.972;2023-04-10T01:01:00;101294.44;;;3.79;100.00
73063;BME280;61230;46.328;19.972;2023-04-10T01:03:28;101232.28;;;3.56;100.00
73063;BME280;61230;46.328;19.972;2023-04-10T01:06:04;101289.09;;;3.82;100.00
73063;BME280;61230;46.328;19.972;2023-04-10T01:08:42;101279.44;;;3.84;100.00
73063;BME280;61230;46.328;19.972;2023-04-10T01:11:28;101274.53;;;3.78;100.00
73063;BME280;61230;46.328;19.972;2023-04-10T01:14:19;101276.97;;;3.81;100.00
73063;BME280;61230;46.328;19.972;2023-04-10T01:16:54;101277.87;;;3.80;100.00
73063;BME280;61230;46.328;19.972;2023-04-10T01:19:42;101275.75;;;3.88;100.00
73063;BME280;61230;46.328;19.972;2023-04-10T01:22:15;101222.78;;;3.55;100.00
73063;BME280;61230;46.328;19.972;2023-04-10T01:28:14;101277.37;;;3.91;100.00
73063;BME280;61230;46.328;19.972;2023-04-10T01:30:37;101266.97;;;3.91;100.00
73063;BME280;61230;46.328;19.972;2023-04-10T01:33:09;101274.97;;;3.86;100.00
73063;BME280;61230;46.328;19.972;2023-04-10T01:35:42;101261.06;;;3.70;100.00
73063;BME280;61230;46.328;19.972;2023-04-10T01:38:10;101268.25;;;3.65;100.00
73063;BME280;61230;46.328;19.972;2023-04-10T01:40:38;101268.81;;;3.72;100.00
73063;BME280;61230;46.328;19.972;2023-04-10T01:43:10;101270.72;;;3.68;100.00
73063;BME280;61230;46.328;19.972;2023-04-10T01:45:40;101273.00;;;3.74;100.00
73063;BME280;61230;46.328;19.972;2023-04-10T01:48:10;101265.50;;;3.68;100.00
73063;BME280;61230;46.328;19.972;2023-04-10T01:50:39;101266.56;;;3.64;100.00
73063;BME280;61230;46.328;19.972;2023-04-10T01:53:07;101276.38;;;3.59;100.00
73063;BME280;61230;46.328;19.972;2023-04-10T01:55:36;101270.09;;;3.63;100.00
73063;BME280;61230;46.328;19.972;2023-04-10T01:58:06;101217.50;;;3.39;100.00
73063;BME280;61230;46.328;19.972;2023-04-10T02:00:41;101269.47;;;3.75;100.00
73063;BME280;61230;46.328;19.972;2023-04-10T02:03:10;101262.44;;;3.60;100.00
73063;BME280;61230;46.328;19.972;2023-04-10T02:08:21;101262.19;;;3.47;100.00
73063;BME280;61230;46.328;19.972;2023-04-10T02:10:58;101264.34;;;3.57;100.00
73063;BME280;61230;46.328;19.972;2023-04-10T02:13:29;101249.66;;;3.56;100.00
73063;BME280;61230;46.328;19.972;2023-04-10T02:16:00;101251.41;;;3.55;100.00
73063;BME280;61230;46.328;19.972;2023-04-10T02:18:33;101258.31;;;3.56;100.00
73063;BME280;61230;46.328;19.972;2023-04-10T02:21:02;101251.94;;;3.44;100.00
73063;BME280;61230;46.328;19.972;2023-04-10T02:23:30;101248.62;;;3.41;100.00
73063;BME280;61230;46.328;19.972;2023-04-10T02:25:57;101250.06;;;3.29;100.00
73063;BME280;61230;46.328;19.972;2023-04-10T02:28:32;101243.13;;;3.30;100.00
73063;BME280;61230;46.328;19.972;2023-04-10T02:30:59;101245.88;;;3.27;100.00
73063;BME280;61230;46.328;19.972;2023-04-10T02:33:27;101244.69;;;3.15;100.00
73063;BME280;61230;46.328;19.972;2023-04-10T02:35:55;101237.53;;;3.20;100.00
73063;BME280;61230;46.328;19.972;2023-04-10T02:38:23;101230.78;;;3.16;100.00
73063;BME280;61230;46.328;19.972;2023-04-10T02:40:50;101236.91;;;3.15;100.00
73063;BME280;61230;46.328;19.972;2023-04-10T02:43:19;101232.97;;;3.07;100.00
73063;BME280;61230;46.328;19.972;2023-04-10T02:45:46;101228.38;;;2.95;100.00
73063;BME280;61230;46.328;19.972;2023-04-10T02:48:15;101228.28;;;2.96;100.00
73063;BME280;61230;46.328;19.972;2023-04-10T02:50:46;101231.69;;;2.79;100.00
73063;BME280;61230;46.328;19.972;2023-04-10T02:53:15;101230.44;;;2.69;100.00
73063;BME280;61230;46.328;19.972;2023-04-10T02:55:43;101240.03;;;2.67;100.00
73063;BME280;61230;46.328;19.972;2023-04-10T02:58:10;101228.19;;;2.62;100.00
73063;BME280;61230;46.328;19.972;2023-04-10T03:00:46;101231.50;;;2.65;100.00
73063;BME280;61230;46.328;19.972;2023-04-10T03:03:17;101233.66;;;2.74;100.00
73063;BME280;61230;46.328;19.972;2023-04-10T03:05:45;101230.44;;;2.69;100.00
73063;BME280;61230;46.328;19.972;2023-04-10T03:08:17;101227.50;;;2.58;100.00
73063;BME280;61230;46.328;19.972;2023-04-10T03:10:46;101232.41;;;2.46;100.00
73063;BME280;61230;46.328;19.972;2023-04-10T03:13:16;101231.38;;;2.50;100.00
73063;BME280;61230;46.328;19.972;2023-04-10T03:15:44;101181.72;;;2.18;100.00
73063;BME280;61230;46.328;19.972;2023-04-10T03:18:13;101229.66;;;2.49;100.00
73063;BME280;61230;46.328;19.972;2023-04-10T03:20:41;101234.91;;;2.47;100.00
73063;BME280;61230;46.328;19.972;2023-04-10T03:23:11;101233.16;;;2.48;100.00
73063;BME280;61230;46.328;19.972;2023-04-10T03:25:40;101250.22;;;2.35;100.00
73063;BME280;61230;46.328;19.972;2023-04-10T03:28:08;101236.31;;;2.36;100.00
73063;BME280;61230;46.328;19.972;2023-04-10T03:30:35;101232.66;;;2.40;100.00
73063;BME280;61230;46.328;19.972;2023-04-10T03:33:03;101234.84;;;2.49;100.00
73063;BME280;61230;46.328;19.972;2023-04-10T03:35:31;101243.00;;;2.41;100.00
73063;BME280;61230;46.328;19.972;2023-04-10T03:38:00;101238.31;;;2.49;100.00
73063;BME280;61230;46.328;19.972;2023-04-10T03:40:27;101239.22;;;2.48;100.00
73063;BME280;61230;46.328;19.972;2023-04-10T03:42:55;101185.72;;;2.25;100.00
73063;BME280;61230;46.328;19.972;2023-04-10T03:45:24;101187.31;;;2.28;100.00
73063;BME280;61230;46.328;19.972;2023-04-10T03:47:52;101219.91;;;2.54;100.00
73063;BME280;61230;46.328;19.972;2023-04-10T03:50:20;101237.03;;;2.58;100.00
73063;BME280;61230;46.328;19.972;2023-04-10T03:52:47;101239.56;;;2.59;100.00
73063;BME280;61230;46.328;19.972;2023-04-10T03:55:19;101241.66;;;2.51;100.00
73063;BME280;61230;46.328;19.972;2023-04-10T03:57:47;101239.78;;;2.55;100.00
73063;BME280;61230;46.328;19.972;2023-04-10T04:00:16;101250.03;;;2.58;100.00
73063;BME280;61230;46.328;19.972;2023-04-10T04:02:49;101237.94;;;2.57;100.00
73063;BME280;61230;46.328;19.972;2023-04-10T04:05:19;101236.34;;;2.54;100.00
73063;BME280;61230;46.328;19.972;2023-04-10T04:07:47;101242.38;;;2.55;100.00
73063;BME280;61230;46.328;19.972;2023-04-10T04:10:16;101246.72;;;2.54;100.00
73063;BME280;61230;46.328;19.972;2023-04-10T04:12:46;101244.13;;;2.54;100.00
73063;BME280;61230;46.328;19.972;2023-04-10T04:15:13;101257.88;;;2.56;100.00
73063;BME280;61230;46.328;19.972;2023-04-10T04:17:41;101253.31;;;2.61;100.00
73063;BME280;61230;46.328;19.972;2023-04-10T04:20:12;101250.87;;;2.58;100.00
73063;BME280;61230;46.328;19.972;2023-04-10T04:22:43;101264.00;;;2.55;100.00
73063;BME280;61230;46.328;19.972;2023-04-10T04:25:11;101267.00;;;2.65;100.00
73063;BME280;61230;46.328;19.972;2023-04-10T04:27:41;101261.81;;;2.65;100.00
73063;BME280;61230;46.328;19.972;2023-04-10T04:30:09;101277.34;;;2.66;100.00
73063;BME280;61230;46.328;19.972;2023-04-10T04:32:41;101268.63;;;2.67;100.00
73063;BME280;61230;46.328;19.972;2023-04-10T04:35:09;101277.34;;;2.66;100.00
73063;BME280;61230;46.328;19.972;2023-04-10T04:37:39;101279.44;;;2.77;100.00
73063;BME280;61230;46.328;19.972;2023-04-10T04:40:09;101241.03;;;2.65;100.00
73063;BME280;61230;46.328;19.972;2023-04-10T04:42:37;101279.50;;;2.94;100.00
73063;BME280;61230;46.328;19.972;2023-04-10T04:45:06;101282.69;;;3.01;100.00
73063;BME280;61230;46.328;19.972;2023-04-10T04:47:35;101290.53;;;2.99;100.00
73063;BME280;61230;46.328;19.972;2023-04-10T04:50:03;101286.16;;;3.18;100.00
73063;BME280;61230;46.328;19.972;2023-04-10T04:52:33;101229.00;;;3.00;100.00
73063;BME280;61230;46.328;19.972;2023-04-10T04:55:02;101288.03;;;3.33;100.00
73063;BME280;61230;46.328;19.972;2023-04-10T04:57:30;101287.28;;;3.31;100.00
73063;BME280;61230;46.328;19.972;2023-04-10T05:00:01;101293.66;;;3.43;100.00
73063;BME280;61230;46.328;19.972;2023-04-10T05:02:34;101284.59;;;3.50;100.00
73063;BME280;61230;46.328;19.972;2023-04-10T05:05:03;101296.59;;;3.71;100.00
73063;BME280;61230;46.328;19.972;2023-04-10T05:07:34;101300.41;;;3.81;100.00
73063;BME280;61230;46.328;19.972;2023-04-10T05:10:02;101244.84;;;3.65;100.00
73063;BME280;61230;46.328;19.972;2023-04-10T05:12:33;101282.44;;;3.94;100.00
73063;BME280;61230;46.328;19.972;2023-04-10T05:15:02;101292.13;;;4.07;100.00
73063;BME280;61230;46.328;19.972;2023-04-10T05:17:30;101295.88;;;4.19;100.00
73063;BME280;61230;46.328;19.972;2023-04-10T05:19:58;101297.00;;;4.31;100.00
73063;BME280;61230;46.328;19.972;2023-04-10T05:22:26;101308.28;;;4.14;100.00
73063;BME280;61230;46.328;19.972;2023-04-10T05:24:58;101299.62;;;4.31;100.00
73063;BME280;61230;46.328;19.972;2023-04-10T05:27:27;101303.88;;;4.32;100.00
73063;BME280;61230;46.328;19.972;2023-04-10T05:29:58;101312.66;;;4.46;100.00
73063;BME280;61230;46.328;19.972;2023-04-10T05:32:26;101293.84;;;4.57;100.00
73063;BME280;61230;46.328;19.972;2023-04-10T05:34:56;101316.72;;;4.52;100.00
73063;BME280;61230;46.328;19.972;2023-04-10T05:37:24;101315.22;;;4.63;100.00
73063;BME280;61230;46.328;19.972;2023-04-10T05:39:53;101262.00;;;4.52;100.00
73063;BME280;61230;46.328;19.972;2023-04-10T05:42:20;101229.75;;;4.22;100.00
73063;BME280;61230;46.328;19.972;2023-04-10T05:44:51;101259.75;;;4.61;100.00
73063;BME280;61230;46.328;19.972;2023-04-10T05:47:20;101318.66;;;5.12;100.00
73063;BME280;61230;46.328;19.972;2023-04-10T05:49:48;101314.63;;;5.38;100.00
73063;BME280;61230;46.328;19.972;2023-04-10T05:52:18;101274.56;;;5.23;98.37
73063;BME280;61230;46.328;19.972;2023-04-10T05:54:46;101313.03;;;5.65;98.11
73063;BME280;61230;46.328;19.972;2023-04-10T05:57:14;101319.75;;;5.85;96.41
73063;BME280;61230;46.328;19.972;2023-04-10T05:59:42;101324.44;;;6.10;95.92
73063;BME280;61230;46.328;19.972;2023-04-10T06:02:10;101318.81;;;6.16;95.41
73063;BME280;61230;46.328;19.972;2023-04-10T06:04:39;101319.50;;;6.33;95.27
73063;BME280;61230;46.328;19.972;2023-04-10T06:07:07;101314.47;;;6.45;94.38
73063;BME280;61230;46.328;19.972;2023-04-10T06:09:34;101321.28;;;6.61;94.75
73063;BME280;61230;46.328;19.972;2023-04-10T06:12:04;101269.84;;;6.48;93.27
73063;BME280;61230;46.328;19.972;2023-04-10T06:14:33;101320.53;;;6.87;90.82
73063;BME280;61230;46.328;19.972;2023-04-10T06:17:01;101311.75;;;7.03;89.60
73063;BME280;61230;46.328;19.972;2023-04-10T06:19:29;101308.97;;;7.18;89.92
73063;BME280;61230;46.328;19.972;2023-04-10T06:21:57;101306.06;;;7.37;89.86
73063;BME280;61230;46.328;19.972;2023-04-10T06:24:24;101294.53;;;7.39;88.15
73063;BME280;61230;46.328;19.972;2023-04-10T06:26:54;101314.06;;;7.61;87.24
73063;BME280;61230;46.328;19.972;2023-04-10T06:29:23;101315.37;;;7.68;86.33
73063;BME280;61230;46.328;19.972;2023-04-10T06:31:51;101317.41;;;7.89;86.19
73063;BME280;61230;46.328;19.972;2023-04-10T06:34:19;101273.59;;;7.66;83.76
73063;BME280;61230;46.328;19.972;2023-04-10T06:36:48;101314.75;;;8.16;83.45
73063;BME280;61230;46.328;19.972;2023-04-10T06:39:16;101320.00;;;8.29;82.99
73063;BME280;61230;46.328;19.972;2023-04-10T06:41:44;101311.84;;;8.33;81.53
73063;BME280;61230;46.328;19.972;2023-04-10T06:44:12;101315.09;;;8.49;81.37
73063;BME280;61230;46.328;19.972;2023-04-10T06:46:40;101314.87;;;8.52;79.12
73063;BME280;61230;46.328;19.972;2023-04-10T06:49:08;101329.78;;;8.64;79.87
73063;BME280;61230;46.328;19.972;2023-04-10T06:51:35;101311.22;;;8.68;79.12
73063;BME280;61230;46.328;19.972;2023-04-10T06:54:04;101273.22;;;8.60;79.30
73063;BME280;61230;46.328;19.972;2023-04-10T06:56:32;101324.06;;;8.96;78.23
73063;BME280;61230;46.328;19.972;2023-04-10T06:58:59;101316.16;;;9.08;78.06
73063;BME280;61230;46.328;19.972;2023-04-10T07:01:27;101320.12;;;9.14;76.99
73063;BME280;61230;46.328;19.972;2023-04-10T07:03:56;101315.94;;;9.11;76.96
73063;BME280;61230;46.328;19.972;2023-04-10T07:06:24;101320.38;;;9.35;77.35
73063;BME280;61230;46.328;19.972;2023-04-10T07:08:53;101318.66;;;9.46;76.34
73063;BME280;61230;46.328;19.972;2023-04-10T07:11:21;101315.47;;;9.54;76.23
73063;BME280;61230;46.328;19.972;2023-04-10T07:13:48;101314.66;;;9.53;75.92
73063;BME280;61230;46.328;19.972;2023-04-10T07:16:20;101313.41;;;9.46;74.71
73063;BME280;61230;46.328;19.972;2023-04-10T07:18:48;101318.50;;;9.60;74.10
73063;BME280;61230;46.328;19.972;2023-04-10T07:21:16;101310.22;;;9.77;75.92
73063;BME280;61230;46.328;19.972;2023-04-10T07:23:43;101313.94;;;9.86;74.71
73063;BME280;61230;46.328;19.972;2023-04-10T07:26:11;101268.66;;;9.48;74.18
73063;BME280;61230;46.328;19.972;2023-04-10T07:28:39;101310.16;;;9.90;74.33
73063;BME280;61230;46.328;19.972;2023-04-10T07:31:06;101301.69;;;9.98;73.49
73063;BME280;61230;46.328;19.972;2023-04-10T07:33:35;101321.78;;;10.10;72.27
73063;BME280;61230;46.328;19.972;2023-04-10T07:36:03;101264.72;;;9.88;72.40
73063;BME280;61230;46.328;19.972;2023-04-10T07:38:32;101262.78;;;10.14;71.93
73063;BME280;61230;46.328;19.972;2023-04-10T07:41:00;101322.97;;;10.41;71.94
73063;BME280;61230;46.328;19.972;2023-04-10T07:43:28;101302.16;;;10.49;70.75
73063;BME280;61230;46.328;19.972;2023-04-10T07:45:56;101305.88;;;10.68;70.41
73063;BME280;61230;46.328;19.972;2023-04-10T07:48:24;101309.09;;;10.83;70.05
73063;BME280;61230;46.328;19.972;2023-04-10T07:50:52;101261.59;;;10.73;68.40
73063;BME280;61230;46.328;19.972;2023-04-10T07:53:19;101297.47;;;10.96;68.03
73063;BME280;61230;46.328;19.972;2023-04-10T07:55:48;101307.19;;;10.85;68.07
73063;BME280;61230;46.328;19.972;2023-04-10T07:58:16;101257.31;;;10.72;68.03
73063;BME280;61230;46.328;19.972;2023-04-10T08:00:44;101303.94;;;11.04;67.16
73063;BME280;61230;46.328;19.972;2023-04-10T08:03:13;101257.31;;;10.83;66.94
73063;BME280;61230;46.328;19.972;2023-04-10T08:05:42;101257.25;;;11.06;66.18
73063;BME280;61230;46.328;19.972;2023-04-10T08:08:10;101253.75;;;11.16;65.91
73063;BME280;61230;46.328;19.972;2023-04-10T08:10:38;101294.34;;;11.57;66.77
73063;BME280;61230;46.328;19.972;2023-04-10T08:13:05;101303.03;;;11.36;65.04
73063;BME280;61230;46.328;19.972;2023-04-10T08:15:33;101305.97;;;11.54;66.46
73063;BME280;61230;46.328;19.972;2023-04-10T08:18:01;101299.22;;;11.61;66.38
73063;BME280;61230;46.328;19.972;2023-04-10T08:20:28;101250.59;;;11.33;66.71
73063;BME280;61230;46.328;19.972;2023-04-10T08:22:56;101256.41;;;11.48;65.84
73063;BME280;61230;46.328;19.972;2023-04-10T08:25:39;101301.87;;;11.61;65.38
73063;BME280;61230;46.328;19.972;2023-04-10T08:28:07;101281.22;;;11.98;65.65
73063;BME280;61230;46.328;19.972;2023-04-10T08:30:35;101286.50;;;11.77;65.15
73063;BME280;61230;46.328;19.972;2023-04-10T08:33:03;101285.47;;;11.89;63.85
73063;BME280;61230;46.328;19.972;2023-04-10T08:35:30;101234.31;;;11.60;64.52
73063;BME280;61230;46.328;19.972;2023-04-10T08:37:58;101278.28;;;11.91;62.76
73063;BME280;61230;46.328;19.972;2023-04-10T08:40:40;101266.50;;;12.16;62.87
73063;BME280;61230;46.328;19.972;2023-04-10T08:43:09;101272.09;;;12.23;63.56
73063;BME280;61230;46.328;19.972;2023-04-10T08:45:39;101267.69;;;12.33;62.61
73063;BME280;61230;46.328;19.972;2023-04-10T08:48:09;101247.37;;;12.24;64.30
73063;BME280;61230;46.328;19.972;2023-04-10T08:50:40;101254.81;;;12.39;64.30
73063;BME280;61230;46.328;19.972;2023-04-10T08:53:11;101267.09;;;12.50;60.34
73063;BME280;61230;46.328;19.972;2023-04-10T08:55:40;101271.09;;;12.44;61.44
73063;BME280;61230;46.328;19.972;2023-04-10T08:58:10;101258.84;;;12.43;61.24
73063;BME280;61230;46.328;19.972;2023-04-10T09:00:38;101265.78;;;12.65;62.75
73063;BME280;61230;46.328;19.972;2023-04-10T09:03:09;101265.91;;;12.63;61.11
73063;BME280;61230;46.328;19.972;2023-04-10T09:05:39;101232.84;;;12.69;62.64
73063;BME280;61230;46.328;19.972;2023-04-10T09:08:07;101249.28;;;12.82;61.67
73063;BME280;61230;46.328;19.972;2023-04-10T09:10:35;101254.03;;;12.88;61.51
73063;BME280;61230;46.328;19.972;2023-04-10T09:13:03;101258.66;;;13.05;61.73
73063;BME280;61230;46.328;19.972;2023-04-10T09:15:54;101259.50;;;12.56;57.74
73063;BME280;61230;46.328;19.972;2023-04-10T09:18:39;101252.41;;;13.06;56.79
73063;BME280;61230;46.328;19.972;2023-04-10T09:21:09;101249.25;;;13.12;57.89
73063;BME280;61230;46.328;19.972;2023-04-10T09:23:37;101241.97;;;13.05;58.08
73063;BME280;61230;46.328;19.972;2023-04-10T09:26:21;101244.00;;;13.41;56.37
73063;BME280;61230;46.328;19.972;2023-04-10T09:29:04;101241.88;;;13.25;55.45
73063;BME280;61230;46.328;19.972;2023-04-10T09:31:33;101193.97;;;13.00;56.97
73063;BME280;61230;46.328;19.972;2023-04-10T09:34:15;101235.50;;;13.57;55.69
73063;BME280;61230;46.328;19.972;2023-04-10T09:39:19;101223.91;;;13.87;55.02
73063;BME280;61230;46.328;19.972;2023-04-10T09:41:52;101181.88;;;13.83;55.15
73063;BME280;61230;46.328;19.972;2023-04-10T09:44:31;101218.19;;;14.01;54.69
73063;BME280;61230;46.328;19.972;2023-04-10T09:49:50;101219.19;;;13.90;53.62
73063;BME280;61230;46.328;19.972;2023-04-10T09:52:30;101232.69;;;13.77;53.67
73063;BME280;61230;46.328;19.972;2023-04-10T09:55:02;101216.97;;;13.66;53.81
73063;BME280;61230;46.328;19.972;2023-04-10T09:57:34;101216.56;;;13.52;54.86
73063;BME280;61230;46.328;19.972;2023-04-10T10:00:04;101209.78;;;14.15;54.08
73063;BME280;61230;46.328;19.972;2023-04-10T10:02:35;101200.81;;;14.25;53.10
73063;BME280;61230;46.328;19.972;2023-04-10T10:05:06;101205.63;;;14.12;50.81
73063;BME280;61230;46.328;19.972;2023-04-10T10:07:35;101205.16;;;14.26;51.31
73063;BME280;61230;46.328;19.972;2023-04-10T10:10:05;101202.87;;;14.41;52.10
73063;BME280;61230;46.328;19.972;2023-04-10T10:12:57;101193.25;;;14.50;50.42
73063;BME280;61230;46.328;19.972;2023-04-10T10:20:49;101190.91;;;14.91;48.20
73063;BME280;61230;46.328;19.972;2023-04-10T10:23:18;101180.25;;;14.74;49.48
73063;BME280;61230;46.328;19.972;2023-04-10T10:25:47;101185.00;;;14.98;49.61
73063;BME280;61230;46.328;19.972;2023-04-10T10:28:15;101184.75;;;15.44;49.18
73063;BME280;61230;46.328;19.972;2023-04-10T10:30:46;101191.59;;;15.29;49.04
73063;BME280;61230;46.328;19.972;2023-04-10T10:33:15;101167.25;;;14.35;50.43
73063;BME280;61230;46.328;19.972;2023-04-10T10:35:43;101182.37;;;14.43;48.05
73063;BME280;61230;46.328;19.972;2023-04-10T10:38:13;101182.94;;;14.00;50.03
73063;BME280;61230;46.328;19.972;2023-04-10T10:43:33;101180.28;;;14.91;47.08
73063;BME280;61230;46.328;19.972;2023-04-10T10:46:13;101168.91;;;14.64;49.17
73063;BME280;61230;46.328;19.972;2023-04-10T10:48:54;101141.38;;;14.92;47.58
73063;BME280;61230;46.328;19.972;2023-04-10T10:51:22;101174.53;;;15.92;48.27
73063;BME280;61230;46.328;19.972;2023-04-10T10:53:50;101179.22;;;14.84;46.31
73063;BME280;61230;46.328;19.972;2023-04-10T10:58:50;101177.16;;;14.61;47.82
73063;BME280;61230;46.328;19.972;2023-04-10T11:01:19;101178.19;;;14.68;48.34
73063;BME280;61230;46.328;19.972;2023-04-10T11:03:48;101172.97;;;15.03;48.50
73063;BME280;61230;46.328;19.972;2023-04-10T11:06:17;101177.62;;;15.44;47.64
73063;BME280;61230;46.328;19.972;2023-04-10T11:08:50;101170.00;;;15.59;46.58
73063;BME280;61230;46.328;19.972;2023-04-10T11:11:23;101153.16;;;16.28;44.68
73063;BME280;61230;46.328;19.972;2023-04-10T11:19:05;101113.50;;;15.06;45.23
73063;BME280;61230;46.328;19.972;2023-04-10T11:22:04;101146.75;;;15.00;46.77
73063;BME280;61230;46.328;19.972;2023-04-10T11:25:06;101147.72;;;14.64;48.96
73063;BME280;61230;46.328;19.972;2023-04-10T11:27:46;101149.19;;;14.12;46.90
73063;BME280;61230;46.328;19.972;2023-04-10T11:30:34;101143.31;;;14.18;49.46
73063;BME280;61230;46.328;19.972;2023-04-10T11:33:03;101136.97;;;14.83;48.96
73063;BME280;61230;46.328;19.972;2023-04-10T11:35:32;101132.81;;;14.80;48.42
73063;BME280;61230;46.328;19.972;2023-04-10T11:38:10;101085.69;;;14.39;49.80
73063;BME280;61230;46.328;19.972;2023-04-10T11:41:04;101130.59;;;14.76;50.25
73063;BME280;61230;46.328;19.972;2023-04-10T11:43:33;101135.81;;;14.13;51.10
73063;BME280;61230;46.328;19.972;2023-04-10T11:46:03;101138.25;;;13.97;50.96
73063;BME280;61230;46.328;19.972;2023-04-10T11:48:32;101101.37;;;13.86;52.39
73063;BME280;61230;46.328;19.972;2023-04-10T11:51:10;101136.50;;;13.78;53.81
73063;BME280;61230;46.328;19.972;2023-04-10T11:53:39;101129.56;;;13.68;54.74
73063;BME280;61230;46.328;19.972;2023-04-10T11:56:18;101123.19;;;13.61;54.64
73063;BME280;61230;46.328;19.972;2023-04-10T11:58:49;101129.66;;;13.86;54.60
73063;BME280;61230;46.328;19.972;2023-04-10T12:01:20;101116.47;;;14.13;54.83
73063;BME280;61230;46.328;19.972;2023-04-10T12:03:48;101123.91;;;14.27;53.67
73063;BME280;61230;46.328;19.972;2023-04-10T12:06:16;101076.44;;;13.89;53.31
73063;BME280;61230;46.328;19.972;2023-04-10T12:08:46;101108.81;;;14.64;52.28
73063;BME280;61230;46.328;19.972;2023-04-10T12:11:18;101122.66;;;15.11;49.59
73063;BME280;61230;46.328;19.972;2023-04-10T12:13:48;101074.06;;;15.03;48.25
73063;BME280;61230;46.328;19.972;2023-04-10T12:16:18;101108.69;;;15.01;47.99
73063;BME280;61230;46.328;19.972;2023-04-10T12:18:47;101110.09;;;15.13;47.47
73063;BME280;61230;46.328;19.972;2023-04-10T12:21:15;101111.16;;;15.20;47.98
73063;BME280;61230;46.328;19.972;2023-04-10T12:23:44;101098.37;;;14.80;49.36
73063;BME280;61230;46.328;19.972;2023-04-10T12:26:16;101111.00;;;13.87;58.58
73063;BME280;61230;46.328;19.972;2023-04-10T12:28:50;101111.94;;;13.49;62.72
73063;BME280;61230;46.328;19.972;2023-04-10T12:31:33;101105.69;;;13.50;63.57
73063;BME280;61230;46.328;19.972;2023-04-10T12:34:02;101122.81;;;13.27;63.56
73063;BME280;61230;46.328;19.972;2023-04-10T12:36:31;101103.62;;;12.96;64.34
73063;BME280;61230;46.328;19.972;2023-04-10T12:39:03;101072.88;;;12.95;66.29
73063;BME280;61230;46.328;19.972;2023-04-10T12:41:32;101111.50;;;12.77;66.90
73063;BME280;61230;46.328;19.972;2023-04-10T12:44:08;101107.22;;;12.57;68.69
73063;BME280;61230;46.328;19.972;2023-04-10T12:46:37;101113.34;;;12.96;68.63
73063;BME280;61230;46.328;19.972;2023-04-10T12:49:13;101106.09;;;12.59;67.21
73063;BME280;61230;46.328;19.972;2023-04-10T12:51:51;101109.28;;;12.63;70.02
73063;BME280;61230;46.328;19.972;2023-04-10T12:54:35;101108.03;;;12.08;72.27
73063;BME280;61230;46.328;19.972;2023-04-10T12:57:04;101077.03;;;12.00;74.80
73063;BME280;61230;46.328;19.972;2023-04-10T12:59:32;101113.28;;;12.57;73.42
73063;BME280;61230;46.328;19.972;2023-04-10T13:02:00;101075.50;;;11.98;72.38
73063;BME280;61230;46.328;19.972;2023-04-10T13:04:29;101106.06;;;12.00;73.07
73063;BME280;61230;46.328;19.972;2023-04-10T13:06:58;101114.59;;;12.23;70.35
73063;BME280;61230;46.328;19.972;2023-04-10T13:09:25;101108.25;;;12.26;69.27
73063;BME280;61230;46.328;19.972;2023-04-10T13:11:53;101109.84;;;12.07;68.95
73063;BME280;61230;46.328;19.972;2023-04-10T13:14:21;101111.00;;;12.15;69.93
73063;BME280;61230;46.328;19.972;2023-04-10T13:16:48;101109.31;;;12.14;70.42
73063;BME280;61230;46.328;19.972;2023-04-10T13:19:16;101058.09;;;11.76;70.51
73063;BME280;61230;46.328;19.972;2023-04-10T13:21:44;101097.59;;;12.06;70.95
73063;BME280;61230;46.328;19.972;2023-04-10T13:24:11;101107.97;;;12.29;70.10